Dell, Arkansas
Current Conditions -  °F | °C
As of 2:53 AM on Wednesday 26 Nov 2014 (Local Time) from KHKA Reporting Station
Clear Clear  
Wind Chill: 33°   Ceiling: Unl
Heat Index: 37°   Visibility: 10mi
Dew Point: 28°   Wind: 5mph
Humidity: 70%   Direction: 140°SE
Pressure: 30.16"   Gusts: NA
Location:  35.86°N, 90.04°W
Report Text: KHKA 260853Z AUTO 14004KT 10SM CLR 03/M02 A3016 RMK AO2 SLP213 T00281022 58003
Loading
Personal Weather Stations






























Interactive Weather Map New forecast layout! Learn more

10-Day Weather Forecast

Advertisements
Track Severe Weather on mobile